sensor_id;sensor_type;location;lat;lon;timestamp;P1;durP1;ratioP1;P2;durP2;ratioP2
41446;SDS011;27185;52.040;4.490;2023-07-28T00:02:27;12.52;;;5.95;;
41446;SDS011;27185;52.040;4.490;2023-07-28T00:05:13;12.10;;;6.03;;
41446;SDS011;27185;52.040;4.490;2023-07-28T00:07:58;12.38;;;6.00;;
41446;SDS011;27185;52.040;4.490;2023-07-28T00:10:44;11.15;;;4.72;;
41446;SDS011;27185;52.040;4.490;2023-07-28T00:13:30;11.77;;;5.45;;
41446;SDS011;27185;52.040;4.490;2023-07-28T00:16:15;13.02;;;6.35;;
41446;SDS011;27185;52.040;4.490;2023-07-28T00:19:01;12.70;;;5.05;;
41446;SDS011;27185;52.040;4.490;2023-07-28T00:21:47;12.50;;;5.28;;
41446;SDS011;27185;52.040;4.490;2023-07-28T00:24:33;12.57;;;5.38;;
41446;SDS011;27185;52.040;4.490;2023-07-28T00:27:18;11.90;;;5.45;;
41446;SDS011;27185;52.040;4.490;2023-07-28T00:30:04;11.05;;;5.07;;
41446;SDS011;27185;52.040;4.490;2023-07-28T00:32:50;14.88;;;5.45;;
41446;SDS011;27185;52.040;4.490;2023-07-28T00:35:36;14.07;;;5.10;;
41446;SDS011;27185;52.040;4.490;2023-07-28T00:38:22;13.45;;;5.03;;
41446;SDS011;27185;52.040;4.490;2023-07-28T00:41:07;11.02;;;4.63;;
41446;SDS011;27185;52.040;4.490;2023-07-28T00:43:53;13.68;;;5.40;;
41446;SDS011;27185;52.040;4.490;2023-07-28T00:46:38;12.88;;;5.05;;
41446;SDS011;27185;52.040;4.490;2023-07-28T00:49:24;11.10;;;5.90;;
41446;SDS011;27185;52.040;4.490;2023-07-28T00:52:10;10.23;;;4.35;;
41446;SDS011;27185;52.040;4.490;2023-07-28T00:54:55;9.57;;;5.32;;
41446;SDS011;27185;52.040;4.490;2023-07-28T00:57:41;11.93;;;5.30;;
41446;SDS011;27185;52.040;4.490;2023-07-28T01:00:26;13.48;;;5.13;;
41446;SDS011;27185;52.040;4.490;2023-07-28T01:03:12;17.10;;;5.28;;
41446;SDS011;27185;52.040;4.490;2023-07-28T01:09:09;16.77;;;5.82;;
41446;SDS011;27185;52.040;4.490;2023-07-28T01:12:06;16.38;;;5.80;;
41446;SDS011;27185;52.040;4.490;2023-07-28T01:14:53;18.42;;;6.78;;
41446;SDS011;27185;52.040;4.490;2023-07-28T01:17:39;15.68;;;6.10;;
41446;SDS011;27185;52.040;4.490;2023-07-28T01:20:25;15.27;;;6.05;;
41446;SDS011;27185;52.040;4.490;2023-07-28T01:23:20;12.32;;;5.97;;
41446;SDS011;27185;52.040;4.490;2023-07-28T01:26:15;11.70;;;5.43;;
41446;SDS011;27185;52.040;4.490;2023-07-28T01:29:05;15.07;;;5.40;;
41446;SDS011;27185;52.040;4.490;2023-07-28T01:31:52;12.80;;;5.00;;
41446;SDS011;27185;52.040;4.490;2023-07-28T01:34:37;13.43;;;5.75;;
41446;SDS011;27185;52.040;4.490;2023-07-28T01:37:23;9.93;;;4.95;;
41446;SDS011;27185;52.040;4.490;2023-07-28T01:40:08;16.58;;;5.70;;
41446;SDS011;27185;52.040;4.490;2023-07-28T01:42:54;14.90;;;5.47;;
41446;SDS011;27185;52.040;4.490;2023-07-28T01:45:40;16.48;;;5.43;;
41446;SDS011;27185;52.040;4.490;2023-07-28T01:48:26;13.35;;;5.72;;
41446;SDS011;27185;52.040;4.490;2023-07-28T01:51:11;16.75;;;5.80;;
41446;SDS011;27185;52.040;4.490;2023-07-28T01:53:57;14.88;;;5.75;;
41446;SDS011;27185;52.040;4.490;2023-07-28T01:56:42;14.38;;;5.07;;
41446;SDS011;27185;52.040;4.490;2023-07-28T01:59:28;14.90;;;5.93;;
41446;SDS011;27185;52.040;4.490;2023-07-28T02:02:14;15.00;;;5.50;;
41446;SDS011;27185;52.040;4.490;2023-07-28T02:05:01;18.00;;;7.43;;
41446;SDS011;27185;52.040;4.490;2023-07-28T02:07:46;15.13;;;5.70;;
41446;SDS011;27185;52.040;4.490;2023-07-28T02:10:32;15.68;;;6.25;;
41446;SDS011;27185;52.040;4.490;2023-07-28T02:13:18;12.52;;;5.43;;
41446;SDS011;27185;52.040;4.490;2023-07-28T02:16:03;18.88;;;5.93;;
41446;SDS011;27185;52.040;4.490;2023-07-28T02:18:49;18.30;;;6.85;;
41446;SDS011;27185;52.040;4.490;2023-07-28T02:21:35;15.65;;;5.95;;
41446;SDS011;27185;52.040;4.490;2023-07-28T02:24:20;17.45;;;6.03;;
41446;SDS011;27185;52.040;4.490;2023-07-28T02:27:06;16.30;;;6.15;;
41446;SDS011;27185;52.040;4.490;2023-07-28T02:29:51;19.88;;;6.50;;
41446;SDS011;27185;52.040;4.490;2023-07-28T02:32:37;14.90;;;6.63;;
41446;SDS011;27185;52.040;4.490;2023-07-28T02:35:23;17.80;;;7.38;;
41446;SDS011;27185;52.040;4.490;2023-07-28T02:38:09;17.95;;;6.68;;
41446;SDS011;27185;52.040;4.490;2023-07-28T02:40:54;19.67;;;6.65;;
41446;SDS011;27185;52.040;4.490;2023-07-28T02:43:40;18.00;;;7.25;;
41446;SDS011;27185;52.040;4.490;2023-07-28T02:46:25;19.02;;;6.93;;
41446;SDS011;27185;52.040;4.490;2023-07-28T02:49:11;18.52;;;6.55;;
41446;SDS011;27185;52.040;4.490;2023-07-28T02:51:57;17.02;;;6.35;;
41446;SDS011;27185;52.040;4.490;2023-07-28T02:54:42;13.77;;;6.47;;
41446;SDS011;27185;52.040;4.490;2023-07-28T02:57:28;19.95;;;9.02;;
41446;SDS011;27185;52.040;4.490;2023-07-28T03:00:13;16.10;;;7.38;;
41446;SDS011;27185;52.040;4.490;2023-07-28T03:02:59;20.73;;;8.75;;
41446;SDS011;27185;52.040;4.490;2023-07-28T03:05:44;21.92;;;7.63;;
41446;SDS011;27185;52.040;4.490;2023-07-28T03:08:30;20.67;;;7.53;;
41446;SDS011;27185;52.040;4.490;2023-07-28T03:11:16;18.30;;;7.25;;
41446;SDS011;27185;52.040;4.490;2023-07-28T03:14:01;14.98;;;6.88;;
41446;SDS011;27185;52.040;4.490;2023-07-28T03:16:47;20.77;;;7.88;;
41446;SDS011;27185;52.040;4.490;2023-07-28T03:19:33;18.10;;;6.38;;
41446;SDS011;27185;52.040;4.490;2023-07-28T03:22:18;24.48;;;7.65;;
41446;SDS011;27185;52.040;4.490;2023-07-28T03:25:04;22.05;;;8.55;;
41446;SDS011;27185;52.040;4.490;2023-07-28T03:27:50;18.65;;;8.10;;
41446;SDS011;27185;52.040;4.490;2023-07-28T03:30:37;21.95;;;7.75;;
41446;SDS011;27185;52.040;4.490;2023-07-28T03:33:23;17.27;;;8.10;;
41446;SDS011;27185;52.040;4.490;2023-07-28T03:36:09;17.92;;;7.72;;
41446;SDS011;27185;52.040;4.490;2023-07-28T03:38:54;18.83;;;7.85;;
41446;SDS011;27185;52.040;4.490;2023-07-28T03:41:40;21.67;;;8.25;;
41446;SDS011;27185;52.040;4.490;2023-07-28T03:44:26;21.48;;;7.80;;
41446;SDS011;27185;52.040;4.490;2023-07-28T03:47:11;21.02;;;7.28;;
41446;SDS011;27185;52.040;4.490;2023-07-28T03:49:57;14.98;;;7.45;;
41446;SDS011;27185;52.040;4.490;2023-07-28T03:52:42;20.05;;;7.28;;
41446;SDS011;27185;52.040;4.490;2023-07-28T03:55:28;19.70;;;7.18;;
41446;SDS011;27185;52.040;4.490;2023-07-28T03:58:14;21.80;;;7.55;;
41446;SDS011;27185;52.040;4.490;2023-07-28T04:00:59;16.67;;;8.00;;
41446;SDS011;27185;52.040;4.490;2023-07-28T04:03:46;19.27;;;8.13;;
41446;SDS011;27185;52.040;4.490;2023-07-28T04:06:43;13.73;;;7.22;;
41446;SDS011;27185;52.040;4.490;2023-07-28T04:09:29;13.15;;;6.20;;
41446;SDS011;27185;52.040;4.490;2023-07-28T04:12:14;13.98;;;6.07;;
41446;SDS011;27185;52.040;4.490;2023-07-28T04:15:00;19.60;;;7.35;;
41446;SDS011;27185;52.040;4.490;2023-07-28T04:17:45;20.20;;;7.07;;
41446;SDS011;27185;52.040;4.490;2023-07-28T04:20:31;15.63;;;7.80;;
41446;SDS011;27185;52.040;4.490;2023-07-28T04:23:16;15.00;;;7.88;;
41446;SDS011;27185;52.040;4.490;2023-07-28T04:26:02;19.58;;;7.72;;
41446;SDS011;27185;52.040;4.490;2023-07-28T04:28:48;19.83;;;7.53;;
41446;SDS011;27185;52.040;4.490;2023-07-28T04:31:33;17.30;;;7.38;;
41446;SDS011;27185;52.040;4.490;2023-07-28T04:34:19;18.45;;;7.40;;
41446;SDS011;27185;52.040;4.490;2023-07-28T04:37:05;17.08;;;7.22;;
41446;SDS011;27185;52.040;4.490;2023-07-28T04:39:50;13.80;;;7.68;;
41446;SDS011;27185;52.040;4.490;2023-07-28T04:42:36;18.58;;;7.93;;
41446;SDS011;27185;52.040;4.490;2023-07-28T04:45:22;15.27;;;7.03;;
41446;SDS011;27185;52.040;4.490;2023-07-28T04:48:07;15.07;;;6.70;;
41446;SDS011;27185;52.040;4.490;2023-07-28T04:50:53;14.20;;;6.55;;
41446;SDS011;27185;52.040;4.490;2023-07-28T04:53:39;15.25;;;7.03;;
41446;SDS011;27185;52.040;4.490;2023-07-28T04:56:25;17.42;;;8.25;;
41446;SDS011;27185;52.040;4.490;2023-07-28T04:59:10;13.45;;;6.80;;
41446;SDS011;27185;52.040;4.490;2023-07-28T05:01:56;23.50;;;7.82;;
41446;SDS011;27185;52.040;4.490;2023-07-28T05:04:42;15.70;;;8.02;;
41446;SDS011;27185;52.040;4.490;2023-07-28T05:07:27;20.58;;;7.88;;
41446;SDS011;27185;52.040;4.490;2023-07-28T05:10:14;22.02;;;8.35;;
41446;SDS011;27185;52.040;4.490;2023-07-28T05:12:59;14.02;;;6.28;;
41446;SDS011;27185;52.040;4.490;2023-07-28T05:15:45;15.25;;;7.32;;
41446;SDS011;27185;52.040;4.490;2023-07-28T05:18:30;17.77;;;7.57;;
41446;SDS011;27185;52.040;4.490;2023-07-28T05:21:16;16.05;;;7.88;;
41446;SDS011;27185;52.040;4.490;2023-07-28T05:24:02;15.10;;;6.93;;
41446;SDS011;27185;52.040;4.490;2023-07-28T05:26:48;14.98;;;7.85;;
41446;SDS011;27185;52.040;4.490;2023-07-28T05:29:33;16.95;;;7.32;;
41446;SDS011;27185;52.040;4.490;2023-07-28T05:32:19;16.13;;;7.40;;
41446;SDS011;27185;52.040;4.490;2023-07-28T05:35:06;16.33;;;7.80;;
41446;SDS011;27185;52.040;4.490;2023-07-28T05:37:52;15.85;;;6.93;;
41446;SDS011;27185;52.040;4.490;2023-07-28T05:40:39;19.10;;;8.35;;
41446;SDS011;27185;52.040;4.490;2023-07-28T05:43:25;16.33;;;7.55;;
41446;SDS011;27185;52.040;4.490;2023-07-28T05:46:14;15.77;;;7.82;;
41446;SDS011;27185;52.040;4.490;2023-07-28T05:49:00;16.63;;;7.28;;
41446;SDS011;27185;52.040;4.490;2023-07-28T05:51:46;18.45;;;7.18;;
41446;SDS011;27185;52.040;4.490;2023-07-28T05:54:41;18.77;;;9.85;;
41446;SDS011;27185;52.040;4.490;2023-07-28T05:57:26;15.60;;;7.63;;
41446;SDS011;27185;52.040;4.490;2023-07-28T06:00:12;17.13;;;7.45;;
41446;SDS011;27185;52.040;4.490;2023-07-28T06:02:58;15.85;;;8.35;;
41446;SDS011;27185;52.040;4.490;2023-07-28T06:05:43;18.08;;;7.95;;
41446;SDS011;27185;52.040;4.490;2023-07-28T06:08:29;15.98;;;9.95;;
41446;SDS011;27185;52.040;4.490;2023-07-28T06:11:14;17.85;;;10.10;;
41446;SDS011;27185;52.040;4.490;2023-07-28T06:14:03;17.13;;;9.55;;
41446;SDS011;27185;52.040;4.490;2023-07-28T06:16:52;14.90;;;9.18;;
41446;SDS011;27185;52.040;4.490;2023-07-28T06:19:38;17.40;;;10.02;;
41446;SDS011;27185;52.040;4.490;2023-07-28T06:22:23;12.57;;;8.32;;
41446;SDS011;27185;52.040;4.490;2023-07-28T06:25:09;14.43;;;8.55;;
41446;SDS011;27185;52.040;4.490;2023-07-28T06:27:55;17.08;;;10.98;;
41446;SDS011;27185;52.040;4.490;2023-07-28T06:30:41;18.42;;;10.25;;
41446;SDS011;27185;52.040;4.490;2023-07-28T06:33:28;16.17;;;8.95;;
41446;SDS011;27185;52.040;4.490;2023-07-28T06:36:13;13.25;;;7.97;;
41446;SDS011;27185;52.040;4.490;2023-07-28T06:38:59;11.05;;;7.15;;
41446;SDS011;27185;52.040;4.490;2023-07-28T06:41:45;13.68;;;7.35;;
41446;SDS011;27185;52.040;4.490;2023-07-28T06:44:31;14.43;;;7.88;;
41446;SDS011;27185;52.040;4.490;2023-07-28T06:47:16;12.98;;;7.78;;
41446;SDS011;27185;52.040;4.490;2023-07-28T06:50:02;13.95;;;7.20;;
41446;SDS011;27185;52.040;4.490;2023-07-28T06:52:50;10.45;;;6.75;;
41446;SDS011;27185;52.040;4.490;2023-07-28T06:55:36;11.93;;;6.30;;
41446;SDS011;27185;52.040;4.490;2023-07-28T06:58:24;9.80;;;5.35;;
41446;SDS011;27185;52.040;4.490;2023-07-28T07:01:09;11.57;;;5.60;;
41446;SDS011;27185;52.040;4.490;2023-07-28T07:03:55;10.05;;;4.72;;
41446;SDS011;27185;52.040;4.490;2023-07-28T07:06:41;10.45;;;6.30;;
41446;SDS011;27185;52.040;4.490;2023-07-28T07:09:27;7.63;;;5.40;;
41446;SDS011;27185;52.040;4.490;2023-07-28T07:12:12;12.60;;;5.10;;
41446;SDS011;27185;52.040;4.490;2023-07-28T07:14:58;14.07;;;6.18;;
41446;SDS011;27185;52.040;4.490;2023-07-28T07:17:44;10.18;;;5.50;;
41446;SDS011;27185;52.040;4.490;2023-07-28T07:20:30;10.15;;;5.50;;
41446;SDS011;27185;52.040;4.490;2023-07-28T07:23:18;9.02;;;5.07;;
41446;SDS011;27185;52.040;4.490;2023-07-28T07:26:04;11.20;;;5.53;;
41446;SDS011;27185;52.040;4.490;2023-07-28T07:28:50;9.75;;;4.85;;
41446;SDS011;27185;52.040;4.490;2023-07-28T07:31:35;6.30;;;4.22;;
41446;SDS011;27185;52.040;4.490;2023-07-28T07:34:22;9.52;;;5.68;;
41446;SDS011;27185;52.040;4.490;2023-07-28T07:37:09;6.95;;;4.50;;
41446;SDS011;27185;52.040;4.490;2023-07-28T07:39:54;7.63;;;4.65;;
41446;SDS011;27185;52.040;4.490;2023-07-28T07:42:41;7.72;;;4.38;;
41446;SDS011;27185;52.040;4.490;2023-07-28T07:45:31;6.68;;;4.60;;
41446;SDS011;27185;52.040;4.490;2023-07-28T07:48:17;9.75;;;5.28;;
41446;SDS011;27185;52.040;4.490;2023-07-28T07:51:03;10.75;;;4.43;;
41446;SDS011;27185;52.040;4.490;2023-07-28T07:53:48;6.78;;;4.13;;
41446;SDS011;27185;52.040;4.490;2023-07-28T07:56:34;7.47;;;3.85;;
41446;SDS011;27185;52.040;4.490;2023-07-28T07:59:20;7.07;;;3.25;;
41446;SDS011;27185;52.040;4.490;2023-07-28T08:02:05;11.73;;;3.42;;
41446;SDS011;27185;52.040;4.490;2023-07-28T08:04:51;7.93;;;3.63;;
41446;SDS011;27185;52.040;4.490;2023-07-28T08:07:38;7.60;;;2.92;;
41446;SDS011;27185;52.040;4.490;2023-07-28T08:10:23;7.10;;;3.35;;
41446;SDS011;27185;52.040;4.490;2023-07-28T08:13:09;7.13;;;2.85;;
41446;SDS011;27185;52.040;4.490;2023-07-28T08:15:55;6.45;;;3.30;;
41446;SDS011;27185;52.040;4.490;2023-07-28T08:18:41;6.65;;;3.00;;
41446;SDS011;27185;52.040;4.490;2023-07-28T08:21:27;8.88;;;3.28;;
41446;SDS011;27185;52.040;4.490;2023-07-28T08:24:12;7.60;;;3.42;;
41446;SDS011;27185;52.040;4.490;2023-07-28T08:26:58;8.35;;;2.92;;
41446;SDS011;27185;52.040;4.490;2023-07-28T08:29:44;6.50;;;3.35;;
41446;SDS011;27185;52.040;4.490;2023-07-28T08:32:30;7.97;;;3.60;;
41446;SDS011;27185;52.040;4.490;2023-07-28T08:35:16;9.93;;;3.80;;
41446;SDS011;27185;52.040;4.490;2023-07-28T08:38:01;11.15;;;4.07;;
41446;SDS011;27185;52.040;4.490;2023-07-28T08:40:48;8.35;;;3.25;;
41446;SDS011;27185;52.040;4.490;2023-07-28T08:43:34;11.00;;;3.70;;
41446;SDS011;27185;52.040;4.490;2023-07-28T08:46:20;9.77;;;4.10;;
41446;SDS011;27185;52.040;4.490;2023-07-28T08:49:06;9.68;;;4.07;;
41446;SDS011;27185;52.040;4.490;2023-07-28T08:51:52;10.18;;;3.58;;
41446;SDS011;27185;52.040;4.490;2023-07-28T08:54:42;5.72;;;3.33;;
41446;SDS011;27185;52.040;4.490;2023-07-28T08:57:28;11.57;;;4.50;;
41446;SDS011;27185;52.040;4.490;2023-07-28T09:00:14;6.40;;;3.67;;
41446;SDS011;27185;52.040;4.490;2023-07-28T09:03:03;5.85;;;3.28;;
41446;SDS011;27185;52.040;4.490;2023-07-28T09:05:48;7.18;;;3.67;;
41446;SDS011;27185;52.040;4.490;2023-07-28T09:08:34;7.63;;;3.35;;
41446;SDS011;27185;52.040;4.490;2023-07-28T09:11:21;5.50;;;3.67;;
41446;SDS011;27185;52.040;4.490;2023-07-28T09:14:12;8.85;;;3.97;;
41446;SDS011;27185;52.040;4.490;2023-07-28T09:20:16;6.10;;;3.08;;
41446;SDS011;27185;52.040;4.490;2023-07-28T09:23:03;8.45;;;3.20;;
41446;SDS011;27185;52.040;4.490;2023-07-28T09:25:50;9.80;;;3.97;;
41446;SDS011;27185;52.040;4.490;2023-07-28T09:28:45;7.72;;;3.50;;
41446;SDS011;27185;52.040;4.490;2023-07-28T09:31:31;8.38;;;3.47;;
41446;SDS011;27185;52.040;4.490;2023-07-28T09:34:24;10.52;;;4.15;;
41446;SDS011;27185;52.040;4.490;2023-07-28T09:37:11;8.90;;;3.88;;
41446;SDS011;27185;52.040;4.490;2023-07-28T09:39:58;12.60;;;4.13;;
41446;SDS011;27185;52.040;4.490;2023-07-28T09:42:44;10.98;;;3.78;;
41446;SDS011;27185;52.040;4.490;2023-07-28T09:45:40;7.50;;;3.97;;
41446;SDS011;27185;52.040;4.490;2023-07-28T09:48:28;9.00;;;4.35;;
41446;SDS011;27185;52.040;4.490;2023-07-28T09:51:17;9.30;;;3.85;;
41446;SDS011;27185;52.040;4.490;2023-07-28T09:54:07;8.07;;;4.30;;
41446;SDS011;27185;52.040;4.490;2023-07-28T09:56:57;7.35;;;4.00;;
41446;SDS011;27185;52.040;4.490;2023-07-28T09:59:45;8.50;;;3.83;;
41446;SDS011;27185;52.040;4.490;2023-07-28T10:02:32;7.22;;;3.45;;
41446;SDS011;27185;52.040;4.490;2023-07-28T10:05:18;9.13;;;4.32;;
41446;SDS011;27185;52.040;4.490;2023-07-28T10:08:04;7.60;;;3.42;;
41446;SDS011;27185;52.040;4.490;2023-07-28T10:10:50;9.40;;;3.47;;
41446;SDS011;27185;52.040;4.490;2023-07-28T10:13:41;9.85;;;4.05;;
41446;SDS011;27185;52.040;4.490;2023-07-28T10:16:29;9.75;;;4.28;;
41446;SDS011;27185;52.040;4.490;2023-07-28T10:19:23;6.38;;;3.88;;
41446;SDS011;27185;52.040;4.490;2023-07-28T10:22:11;7.88;;;4.25;;
41446;SDS011;27185;52.040;4.490;2023-07-28T10:25:00;13.73;;;5.63;;
41446;SDS011;27185;52.040;4.490;2023-07-28T10:27:46;8.63;;;4.40;;
41446;SDS011;27185;52.040;4.490;2023-07-28T10:30:36;9.70;;;4.75;;
41446;SDS011;27185;52.040;4.490;2023-07-28T10:33:56;7.43;;;4.13;;
41446;SDS011;27185;52.040;4.490;2023-07-28T10:36:35;5.93;;;3.90;;
41446;SDS011;27185;52.040;4.490;2023-07-28T10:39:20;5.53;;;3.60;;
41446;SDS011;27185;52.040;4.490;2023-07-28T10:42:09;9.45;;;4.03;;
41446;SDS011;27185;52.040;4.490;2023-07-28T10:44:55;5.72;;;3.15;;
41446;SDS011;27185;52.040;4.490;2023-07-28T10:47:41;6.93;;;3.78;;
41446;SDS011;27185;52.040;4.490;2023-07-28T10:50:27;7.85;;;3.75;;
41446;SDS011;27185;52.040;4.490;2023-07-28T10:53:14;6.40;;;3.25;;
41446;SDS011;27185;52.040;4.490;2023-07-28T10:56:00;8.93;;;3.05;;
41446;SDS011;27185;52.040;4.490;2023-07-28T10:58:55;5.32;;;2.67;;
41446;SDS011;27185;52.040;4.490;2023-07-28T11:01:44;7.07;;;3.17;;
41446;SDS011;27185;52.040;4.490;2023-07-28T11:04:31;10.02;;;2.70;;
41446;SDS011;27185;52.040;4.490;2023-07-28T11:07:17;5.75;;;2.30;;
41446;SDS011;27185;52.040;4.490;2023-07-28T11:10:03;7.13;;;2.90;;
41446;SDS011;27185;52.040;4.490;2023-07-28T11:12:52;4.70;;;2.30;;
41446;SDS011;27185;52.040;4.490;2023-07-28T11:15:38;4.33;;;2.37;;
41446;SDS011;27185;52.040;4.490;2023-07-28T11:18:25;4.55;;;2.03;;
41446;SDS011;27185;52.040;4.490;2023-07-28T11:21:12;4.80;;;1.90;;
41446;SDS011;27185;52.040;4.490;2023-07-28T11:24:01;4.63;;;1.80;;
41446;SDS011;27185;52.040;4.490;2023-07-28T11:26:47;5.93;;;2.50;;
41446;SDS011;27185;52.040;4.490;2023-07-28T11:29:34;5.20;;;2.20;;
41446;SDS011;27185;52.040;4.490;2023-07-28T11:32:20;3.88;;;1.98;;
41446;SDS011;27185;52.040;4.490;2023-07-28T11:35:06;4.25;;;1.92;;
41446;SDS011;27185;52.040;4.490;2023-07-28T11:37:54;3.92;;;1.75;;
41446;SDS011;27185;52.040;4.490;2023-07-28T11:40:41;5.72;;;1.77;;
41446;SDS011;27185;52.040;4.490;2023-07-28T11:43:27;6.90;;;2.15;;
41446;SDS011;27185;52.040;4.490;2023-07-28T11:49:19;4.85;;;1.92;;
41446;SDS011;27185;52.040;4.490;2023-07-28T11:52:08;3.35;;;2.00;;
41446;SDS011;27185;52.040;4.490;2023-07-28T11:54:54;4.18;;;1.65;;
41446;SDS011;27185;52.040;4.490;2023-07-28T11:57:39;6.75;;;2.47;;
41446;SDS011;27185;52.040;4.490;2023-07-28T12:00:29;6.15;;;2.60;;
41446;SDS011;27185;52.040;4.490;2023-07-28T12:03:29;7.30;;;2.88;;
41446;SDS011;27185;52.040;4.490;2023-07-28T12:06:15;4.22;;;2.13;;
41446;SDS011;27185;52.040;4.490;2023-07-28T12:09:04;4.22;;;2.25;;
41446;SDS011;27185;52.040;4.490;2023-07-28T12:11:53;6.80;;;2.42;;
41446;SDS011;27185;52.040;4.490;2023-07-28T12:14:39;6.93;;;2.50;;
41446;SDS011;27185;52.040;4.490;2023-07-28T12:17:25;6.25;;;1.98;;
41446;SDS011;27185;52.040;4.490;2023-07-28T12:20:12;5.10;;;2.88;;
41446;SDS011;27185;52.040;4.490;2023-07-28T12:23:01;5.35;;;2.42;;
41446;SDS011;27185;52.040;4.490;2023-07-28T12:25:48;6.28;;;3.08;;
41446;SDS011;27185;52.040;4.490;2023-07-28T12:28:40;6.97;;;3.00;;
41446;SDS011;27185;52.040;4.490;2023-07-28T12:31:26;6.53;;;3.20;;
41446;SDS011;27185;52.040;4.490;2023-07-28T12:34:11;4.90;;;3.13;;
41446;SDS011;27185;52.040;4.490;2023-07-28T12:36:57;4.45;;;2.60;;
41446;SDS011;27185;52.040;4.490;2023-07-28T12:39:42;5.82;;;2.90;;
41446;SDS011;27185;52.040;4.490;2023-07-28T12:42:28;7.85;;;3.20;;
41446;SDS011;27185;52.040;4.490;2023-07-28T12:45:14;7.68;;;2.35;;
41446;SDS011;27185;52.040;4.490;2023-07-28T12:48:03;3.65;;;2.05;;
41446;SDS011;27185;52.040;4.490;2023-07-28T12:50:49;3.58;;;1.90;;
41446;SDS011;27185;52.040;4.490;2023-07-28T12:53:35;4.38;;;1.83;;
41446;SDS011;27185;52.040;4.490;2023-07-28T12:56:20;5.65;;;2.30;;
41446;SDS011;27185;52.040;4.490;2023-07-28T12:59:06;3.00;;;1.48;;
41446;SDS011;27185;52.040;4.490;2023-07-28T13:01:52;3.15;;;1.38;;
41446;SDS011;27185;52.040;4.490;2023-07-28T13:04:38;3.30;;;1.60;;
41446;SDS011;27185;52.040;4.490;2023-07-28T13:07:23;3.42;;;1.50;;
41446;SDS011;27185;52.040;4.490;2023-07-28T13:10:09;2.92;;;1.50;;
41446;SDS011;27185;52.040;4.490;2023-07-28T13:12:56;3.42;;;1.55;;
41446;SDS011;27185;52.040;4.490;2023-07-28T13:15:42;3.50;;;1.60;;
41446;SDS011;27185;52.040;4.490;2023-07-28T13:18:28;7.82;;;1.65;;
41446;SDS011;27185;52.040;4.490;2023-07-28T13:21:16;3.70;;;1.83;;
41446;SDS011;27185;52.040;4.490;2023-07-28T13:24:01;3.65;;;2.65;;
41446;SDS011;27185;52.040;4.490;2023-07-28T13:26:48;3.47;;;2.30;;
41446;SDS011;27185;52.040;4.490;2023-07-28T13:29:33;5.93;;;3.30;;
41446;SDS011;27185;52.040;4.490;2023-07-28T13:32:23;3.20;;;2.38;;
41446;SDS011;27185;52.040;4.490;2023-07-28T13:35:10;4.15;;;1.85;;
41446;SDS011;27185;52.040;4.490;2023-07-28T13:37:55;3.05;;;1.80;;
41446;SDS011;27185;52.040;4.490;2023-07-28T13:40:41;3.15;;;1.75;;
41446;SDS011;27185;52.040;4.490;2023-07-28T13:43:27;2.28;;;1.52;;
41446;SDS011;27185;52.040;4.490;2023-07-28T13:46:12;3.63;;;2.05;;
41446;SDS011;27185;52.040;4.490;2023-07-28T13:48:58;4.18;;;2.05;;
41446;SDS011;27185;52.040;4.490;2023-07-28T13:51:43;4.70;;;2.67;;
41446;SDS011;27185;52.040;4.490;2023-07-28T13:54:29;5.22;;;3.50;;
41446;SDS011;27185;52.040;4.490;2023-07-28T13:57:14;4.18;;;3.00;;
41446;SDS011;27185;52.040;4.490;2023-07-28T14:00:00;4.28;;;2.20;;
41446;SDS011;27185;52.040;4.490;2023-07-28T14:02:46;6.00;;;1.88;;
41446;SDS011;27185;52.040;4.490;2023-07-28T14:05:31;2.75;;;1.52;;
41446;SDS011;27185;52.040;4.490;2023-07-28T14:08:17;3.88;;;1.58;;
41446;SDS011;27185;52.040;4.490;2023-07-28T14:11:03;2.63;;;1.30;;
41446;SDS011;27185;52.040;4.490;2023-07-28T14:13:48;2.25;;;1.20;;
41446;SDS011;27185;52.040;4.490;2023-07-28T14:16:34;3.00;;;1.13;;
41446;SDS011;27185;52.040;4.490;2023-07-28T14:19:19;2.35;;;1.23;;
41446;SDS011;27185;52.040;4.490;2023-07-28T14:22:05;2.35;;;1.40;;
41446;SDS011;27185;52.040;4.490;2023-07-28T14:24:51;4.25;;;2.45;;
41446;SDS011;27185;52.040;4.490;2023-07-28T14:27:36;5.88;;;2.67;;
41446;SDS011;27185;52.040;4.490;2023-07-28T14:30:22;4.07;;;3.10;;
41446;SDS011;27185;52.040;4.490;2023-07-28T14:33:07;4.53;;;3.63;;
41446;SDS011;27185;52.040;4.490;2023-07-28T14:35:53;4.82;;;3.50;;
41446;SDS011;27185;52.040;4.490;2023-07-28T14:38:39;7.82;;;3.92;;
41446;SDS011;27185;52.040;4.490;2023-07-28T14:41:24;4.45;;;3.30;;
41446;SDS011;27185;52.040;4.490;2023-07-28T14:44:10;6.30;;;4.63;;
41446;SDS011;27185;52.040;4.490;2023-07-28T14:46:55;6.13;;;4.97;;
41446;SDS011;27185;52.040;4.490;2023-07-28T14:49:41;10.75;;;8.27;;
41446;SDS011;27185;52.040;4.490;2023-07-28T14:52:26;11.45;;;9.18;;
41446;SDS011;27185;52.040;4.490;2023-07-28T14:55:12;12.70;;;11.27;;
41446;SDS011;27185;52.040;4.490;2023-07-28T14:57:58;10.23;;;8.70;;
41446;SDS011;27185;52.040;4.490;2023-07-28T15:00:43;13.52;;;8.55;;
41446;SDS011;27185;52.040;4.490;2023-07-28T15:03:29;8.82;;;6.70;;
41446;SDS011;27185;52.040;4.490;2023-07-28T15:06:18;8.93;;;7.90;;
41446;SDS011;27185;52.040;4.490;2023-07-28T15:09:04;10.82;;;8.77;;
41446;SDS011;27185;52.040;4.490;2023-07-28T15:11:49;8.50;;;7.70;;
41446;SDS011;27185;52.040;4.490;2023-07-28T15:14:35;10.05;;;9.00;;
41446;SDS011;27185;52.040;4.490;2023-07-28T15:17:20;13.43;;;8.38;;
41446;SDS011;27185;52.040;4.490;2023-07-28T15:20:06;9.35;;;8.05;;
41446;SDS011;27185;52.040;4.490;2023-07-28T15:22:52;11.20;;;8.90;;
41446;SDS011;27185;52.040;4.490;2023-07-28T15:25:38;10.18;;;8.43;;
41446;SDS011;27185;52.040;4.490;2023-07-28T15:28:30;10.25;;;8.02;;
41446;SDS011;27185;52.040;4.490;2023-07-28T15:31:16;8.85;;;7.72;;
41446;SDS011;27185;52.040;4.490;2023-07-28T15:34:01;11.30;;;7.82;;
41446;SDS011;27185;52.040;4.490;2023-07-28T15:36:47;8.95;;;6.50;;
41446;SDS011;27185;52.040;4.490;2023-07-28T15:39:33;5.88;;;5.28;;
41446;SDS011;27185;52.040;4.490;2023-07-28T15:42:19;6.38;;;4.75;;
41446;SDS011;27185;52.040;4.490;2023-07-28T15:45:05;7.00;;;5.07;;
41446;SDS011;27185;52.040;4.490;2023-07-28T15:47:51;5.13;;;4.00;;
41446;SDS011;27185;52.040;4.490;2023-07-28T15:50:37;3.97;;;2.88;;
41446;SDS011;27185;52.040;4.490;2023-07-28T15:53:22;4.85;;;2.30;;
41446;SDS011;27185;52.040;4.490;2023-07-28T15:56:08;2.65;;;1.60;;
41446;SDS011;27185;52.040;4.490;2023-07-28T15:58:54;2.85;;;1.45;;
41446;SDS011;27185;52.040;4.490;2023-07-28T16:01:39;3.95;;;1.50;;
41446;SDS011;27185;52.040;4.490;2023-07-28T16:04:25;3.20;;;1.10;;
41446;SDS011;27185;52.040;4.490;2023-07-28T16:07:11;4.93;;;1.45;;
41446;SDS011;27185;52.040;4.490;2023-07-28T16:09:56;2.58;;;1.20;;
41446;SDS011;27185;52.040;4.490;2023-07-28T16:12:42;2.50;;;1.10;;
41446;SDS011;27185;52.040;4.490;2023-07-28T16:15:27;2.72;;;1.00;;
41446;SDS011;27185;52.040;4.490;2023-07-28T16:18:13;3.28;;;1.10;;
41446;SDS011;27185;52.040;4.490;2023-07-28T16:20:59;3.78;;;1.10;;
41446;SDS011;27185;52.040;4.490;2023-07-28T16:23:44;2.10;;;1.02;;
41446;SDS011;27185;52.040;4.490;2023-07-28T16:26:30;3.22;;;0.98;;
41446;SDS011;27185;52.040;4.490;2023-07-28T16:29:16;4.15;;;1.25;;
41446;SDS011;27185;52.040;4.490;2023-07-28T16:32:01;2.95;;;1.33;;
41446;SDS011;27185;52.040;4.490;2023-07-28T16:34:47;8.18;;;1.80;;
41446;SDS011;27185;52.040;4.490;2023-07-28T16:37:33;4.25;;;2.08;;
41446;SDS011;27185;52.040;4.490;2023-07-28T16:40:18;4.10;;;2.30;;
41446;SDS011;27185;52.040;4.490;2023-07-28T16:43:04;3.40;;;2.22;;
41446;SDS011;27185;52.040;4.490;2023-07-28T16:45:49;4.35;;;1.90;;